Spangsville, Pennsylvania
Current Conditions -  °F | °C
As of 4:54 PM on Tuesday 21 Oct 2014 (Local Time) from KPTW Reporting Station
Overcast Overcast  
Wind Chill: 64°   Ceiling: 7000
Heat Index: 64°   Visibility: 10mi
Dew Point: 48°   Wind: 3mph
Humidity: 56%   Direction: 70°ENE
Pressure: 29.82"   Gusts: NA
Location:  40.3481°N, 75.6818°W
Report Text: KPTW 212054Z AUTO 07003KT 10SM FEW045 SCT050 OVC070 18/09 A2982 RMK AO2 SLP095 T01780089 56005
Loading
Personal Weather Stations






























Interactive Weather Map
Tropical Storm Tracking
New forecast layout! Learn more

10-Day Weather Forecast

Advertisements
Track Severe Weather on mobile